Time;durP1;ratioP1;P1;durP2;ratioP2;P2;SDS_P1;SDS_P2;PMS_P1;PMS_P2;Temp;Humidity;BMP_temperature;BMP_pressure;BME280_temperature;BME280_humidity;BME280_pressure;Samples;Min_cycle;Max_cycle;Signal;HPM_P1;HPM_P2
2023/04/06 00:00:09;;;;;;;;;;;;;;;17.51;47.18;100486.97;4996500;28;1068;-41
2023/04/06 00:02:35;;;;;;;;;;;;;;;16.86;47.20;100487.91;4996282;28;1053;-42
2023/04/06 00:05:01;;;;;;;;;;;;;;;18.38;45.77;100488.91;4995930;28;1068;-42
2023/04/06 00:07:28;;;;;;;;;;;;;;;17.50;47.09;100491.66;4996135;28;1099;-43
2023/04/06 00:09:53;;;;;;;;;;;;;;;17.09;46.87;100491.91;4996226;28;1906;-41
2023/04/06 00:12:19;;;;;;;;;;;;;;;18.07;46.43;100493.91;4996076;28;1056;-42
2023/04/06 00:14:44;;;;;;;;;;;;;;;17.12;47.49;100490.53;4996469;28;1212;-41
2023/04/06 00:17:10;;;;;;;;;;;;;;;17.97;46.78;100499.53;4999853;28;879;-44
2023/04/06 00:19:36;;;;;;;;;;;;;;;18.15;46.23;100490.53;4999412;28;1163;-39
2023/04/06 00:22:02;;;;;;;;;;;;;;;17.15;47.18;100495.44;4999868;28;1199;-44
2023/04/06 00:24:27;;;;;;;;;;;;;;;16.86;46.81;100490.66;4999622;28;1125;-42
2023/04/06 00:26:53;;;;;;;;;;;;;;;16.71;45.98;100491.53;4999384;28;1184;-43
2023/04/06 00:29:19;;;;;;;;;;;;;;;17.34;46.89;100488.19;4999563;28;1887;-45
2023/04/06 00:31:45;;;;;;;;;;;;;;;16.74;46.91;100491.78;4999895;28;1092;-47
2023/04/06 00:34:10;;;;;;;;;;;;;;;17.55;46.94;100493.53;4999494;28;1109;-43
2023/04/06 00:36:36;;;;;;;;;;;;;;;17.12;47.46;100479.53;5000301;28;1060;-46
2023/04/06 00:39:02;;;;;;;;;;;;;;;16.75;47.03;100485.19;4997791;28;1013;-42
2023/04/06 00:41:27;;;;;;;;;;;;;;;17.97;45.93;100486.59;4999215;28;846;-45
2023/04/06 00:43:53;;;;;;;;;;;;;;;16.92;47.33;100473.06;4999575;28;1202;-44
2023/04/06 00:46:19;;;;;;;;;;;;;;;18.41;45.80;100471.81;4998252;28;1355;-47
2023/04/06 00:48:45;;;;;;;;;;;;;;;17.85;46.59;100467.69;4997587;28;1902;-45
2023/04/06 00:51:10;;;;;;;;;;;;;;;17.05;47.19;100468.84;4998067;28;1137;-44
2023/04/06 00:53:36;;;;;;;;;;;;;;;16.86;46.39;100463.19;4995649;28;1342;-44
2023/04/06 00:56:02;;;;;;;;;;;;;;;18.00;46.73;100476.94;4984780;28;1231;-47
2023/04/06 00:58:33;;;;;;;;;;;;;;;17.26;47.11;100455.81;5027468;28;1303;-41
2023/04/06 01:01:05;;;;;;;;;;;;;;;16.83;47.01;100459.06;4998201;28;1306;-44
2023/04/06 01:03:32;;;;;;;;;;;;;;;17.26;46.95;100461.28;4997836;28;1327;-43
2023/04/06 01:05:58;;;;;;;;;;;;;;;17.37;47.08;100457.38;4998601;28;1394;-46
2023/04/06 01:08:29;;;;;;;;;;;;;;;16.81;46.91;100449.47;4997470;28;1906;-43
2023/04/06 01:11:09;;;;;;;;;;;;;;;18.27;45.64;100449.69;5030405;28;1429;-43
2023/04/06 01:13:36;;;;;;;;;;;;;;;17.10;47.34;100449.59;4997854;28;1249;-41
2023/04/06 01:16:05;;;;;;;;;;;;;;;16.79;46.68;100444.28;4998899;28;1152;-41
2023/04/06 01:18:43;;;;;;;;;;;;;;;17.65;46.65;100443.94;4997323;28;1170;-46
2023/04/06 01:21:15;;;;;;;;;;;;;;;17.22;47.22;100446.47;4997671;28;1183;-44
2023/04/06 01:23:50;;;;;;;;;;;;;;;16.90;47.32;100445.88;4997540;28;1425;-43
2023/04/06 01:26:22;;;;;;;;;;;;;;;17.89;46.28;100443.16;5011670;28;1428;-43
2023/04/06 01:28:49;;;;;;;;;;;;;;;16.97;47.28;100444.72;4996559;28;1981;-41
2023/04/06 01:31:27;;;;;;;;;;;;;;;16.83;46.95;100441.75;4986916;28;1308;-45
2023/04/06 01:33:53;;;;;;;;;;;;;;;17.34;46.97;100444.19;4998793;28;1353;-47
2023/04/06 01:36:21;;;;;;;;;;;;;;;17.07;47.77;100440.00;4996632;28;1111;-47
2023/04/06 01:38:54;;;;;;;;;;;;;;;18.96;44.23;100426.50;4997344;28;1108;-45
2023/04/06 01:41:27;;;;;;;;;;;;;;;17.48;46.98;100440.81;4996620;28;1165;-42
2023/04/06 01:43:56;;;;;;;;;;;;;;;17.03;46.55;100433.44;4997123;28;1327;-42
2023/04/06 01:46:26;;;;;;;;;;;;;;;16.84;45.92;100435.16;4997382;28;1113;-47
2023/04/06 01:48:51;;;;;;;;;;;;;;;17.53;46.82;100435.25;4986718;28;1914;-45
2023/04/06 01:51:24;;;;;;;;;;;;;;;16.87;46.94;100435.44;4997024;28;1152;-44
2023/04/06 01:54:01;;;;;;;;;;;;;;;16.61;46.45;100426.50;4996857;28;1258;-43
2023/04/06 01:56:37;;;;;;;;;;;;;;;17.71;46.25;100436.47;5029564;28;1106;-44
2023/04/06 01:59:14;;;;;;;;;;;;;;;16.87;46.98;100437.34;4997042;28;1282;-43
2023/04/06 02:01:42;;;;;;;;;;;;;;;18.26;45.46;100422.44;4996459;28;1178;-42
2023/04/06 02:04:08;;;;;;;;;;;;;;;17.96;46.20;100432.66;4996655;28;1105;-44
2023/04/06 02:06:33;;;;;;;;;;;;;;;16.99;47.05;100426.06;5015980;28;895;-44
2023/04/06 02:09:01;;;;;;;;;;;;;;;17.14;47.31;100428.69;4996444;28;1910;-44
2023/04/06 02:11:27;;;;;;;;;;;;;;;17.70;46.78;100426.59;4996192;28;1404;-43
2023/04/06 02:13:55;;;;;;;;;;;;;;;16.93;47.16;100428.03;4996912;28;1153;-45
2023/04/06 02:16:24;;;;;;;;;;;;;;;17.82;46.55;100424.25;4996276;28;1118;-42
2023/04/06 02:18:50;;;;;;;;;;;;;;;17.22;47.11;100414.34;4996211;28;1595;-41
2023/04/06 02:21:19;;;;;;;;;;;;;;;16.76;46.74;100418.19;4996209;28;1144;-42
2023/04/06 02:23:46;;;;;;;;;;;;;;;17.30;47.01;100418.41;4997045;28;1327;-44
2023/04/06 02:26:12;;;;;;;;;;;;;;;17.28;46.71;100429.69;4997318;28;1080;-44
2023/04/06 02:28:38;;;;;;;;;;;;;;;16.74;46.86;100431.38;4995953;28;1910;-40
2023/04/06 02:31:03;;;;;;;;;;;;;;;17.75;46.24;100430.13;4997277;28;1136;-41
2023/04/06 02:33:29;;;;;;;;;;;;;;;16.79;47.09;100426.94;4997716;28;1180;-44
2023/04/06 02:35:55;;;;;;;;;;;;;;;17.52;46.66;100417.94;4997462;28;1096;-43
2023/04/06 02:38:21;;;;;;;;;;;;;;;17.57;46.51;100419.81;4997140;28;1092;-45
2023/04/06 02:40:47;;;;;;;;;;;;;;;16.87;46.78;100423.63;4995641;28;1564;-41
2023/04/06 02:43:22;;;;;;;;;;;;;;;17.62;46.65;100411.53;4996528;28;1474;-40
2023/04/06 02:45:51;;;;;;;;;;;;;;;16.99;47.19;100421.38;4995834;28;1186;-41
2023/04/06 02:48:19;;;;;;;;;;;;;;;16.57;46.98;100414.44;4995746;28;1906;-45
2023/04/06 02:50:44;;;;;;;;;;;;;;;17.42;46.65;100418.03;4996095;28;1122;-47
2023/04/06 02:53:10;;;;;;;;;;;;;;;16.67;47.09;100411.66;4995497;28;1620;-41
2023/04/06 02:55:38;;;;;;;;;;;;;;;17.74;46.14;100419.38;4995812;28;1307;-43
2023/04/06 02:58:03;;;;;;;;;;;;;;;17.14;46.93;100419.63;4995855;28;1442;-44
2023/04/06 03:00:37;;;;;;;;;;;;;;;16.70;46.41;100413.00;4995952;28;1209;-45
2023/04/06 03:03:02;;;;;;;;;;;;;;;17.55;46.35;100408.31;4994928;28;977;-48
2023/04/06 03:05:28;;;;;;;;;;;;;;;16.69;47.10;100408.63;4995261;28;1290;-47
2023/04/06 03:07:54;;;;;;;;;;;;;;;18.02;45.64;100412.25;4996766;28;1072;-46
2023/04/06 03:10:37;;;;;;;;;;;;;;;17.45;46.56;100411.97;4995145;28;1994;-45
2023/04/06 03:13:03;;;;;;;;;;;;;;;16.84;46.75;100413.19;4995490;28;1187;-44
2023/04/06 03:16:01;;;;;;;;;;;;;;;16.58;46.12;100410.63;4990069;28;1245;-44
2023/04/06 03:18:27;;;;;;;;;;;;;;;17.95;45.70;100420.06;4994999;28;1252;-43
2023/04/06 03:20:55;;;;;;;;;;;;;;;16.92;47.18;100420.88;4995709;28;1157;-45
2023/04/06 03:23:24;;;;;;;;;;;;;;;17.91;46.14;100430.00;4995202;28;1287;-44
2023/04/06 03:25:55;;;;;;;;;;;;;;;17.81;46.02;100428.13;4995321;28;1419;-42
2023/04/06 03:28:20;;;;;;;;;;;;;;;16.98;46.84;100416.97;4996516;28;1902;-44
2023/04/06 03:30:56;;;;;;;;;;;;;;;18.40;45.19;100428.06;4996123;28;1014;-43
2023/04/06 03:33:57;;;;;;;;;;;;;;;16.97;47.06;100418.09;4989437;28;1188;-45
2023/04/06 03:36:27;;;;;;;;;;;;;;;16.69;46.54;100416.84;4995353;28;1312;-47
2023/04/06 03:38:55;;;;;;;;;;;;;;;17.22;46.84;100427.25;4995271;28;1213;-44
2023/04/06 03:41:21;;;;;;;;;;;;;;;17.12;47.10;100430.91;4995093;28;1273;-49
2023/04/06 03:43:56;;;;;;;;;;;;;;;17.73;46.35;100432.31;4996282;28;1060;-46
2023/04/06 03:46:22;;;;;;;;;;;;;;;18.54;44.79;100428.16;4995906;28;1191;-44
2023/04/06 03:48:51;;;;;;;;;;;;;;;17.21;46.84;100423.69;4995333;28;1965;-46
2023/04/06 03:51:20;;;;;;;;;;;;;;;18.15;45.98;100429.19;4998058;28;1257;-48
2023/04/06 03:53:47;;;;;;;;;;;;;;;17.59;46.55;100428.63;4998446;28;1352;-45
2023/04/06 03:56:12;;;;;;;;;;;;;;;17.04;46.70;100428.75;5000200;28;1084;-49
2023/04/06 03:58:38;;;;;;;;;;;;;;;17.72;46.77;100435.38;4999092;28;1478;-46
2023/04/06 04:01:04;;;;;;;;;;;;;;;17.28;47.35;100429.69;4999003;28;1140;-43
2023/04/06 04:03:29;;;;;;;;;;;;;;;16.79;47.01;100432.44;4999506;28;1476;-49
2023/04/06 04:05:55;;;;;;;;;;;;;;;16.71;46.07;100426.44;4998260;28;1464;-46
2023/04/06 04:08:23;;;;;;;;;;;;;;;17.98;46.01;100435.13;4999118;28;1894;-43
2023/04/06 04:10:48;;;;;;;;;;;;;;;16.94;47.31;100437.88;4999805;28;943;-48
2023/04/06 04:13:14;;;;;;;;;;;;;;;16.92;47.11;100434.59;5000164;28;1240;-48
2023/04/06 04:15:43;;;;;;;;;;;;;;;17.61;46.40;100438.22;4998945;28;1133;-47
2023/04/06 04:18:08;;;;;;;;;;;;;;;16.86;47.01;100439.28;4998761;28;1148;-47
2023/04/06 04:20:34;;;;;;;;;;;;;;;16.68;47.14;100438.00;5000277;28;1131;-44
2023/04/06 04:22:59;;;;;;;;;;;;;;;17.94;45.86;100441.22;5000202;28;1160;-47
2023/04/06 04:25:28;;;;;;;;;;;;;;;16.92;47.24;100442.84;4998787;28;1194;-47
2023/04/06 04:27:53;;;;;;;;;;;;;;;16.64;46.44;100425.94;4987536;28;1139;-49
2023/04/06 04:30:21;;;;;;;;;;;;;;;16.39;46.49;100429.63;4980411;28;1985;-41
2023/04/06 04:32:47;;;;;;;;;;;;;;;16.28;46.00;100434.31;4980452;28;1088;-46
2023/04/06 04:35:13;;;;;;;;;;;;;;;16.15;45.29;100430.25;4978823;28;1493;-45
2023/04/06 04:37:41;;;;;;;;;;;;;;;16.99;46.18;100440.59;4990990;28;1240;-48
2023/04/06 04:40:08;;;;;;;;;;;;;;;16.32;46.94;100435.41;4980458;28;1155;-45
2023/04/06 04:42:44;;;;;;;;;;;;;;;16.45;46.95;100438.66;4992672;28;1207;-46
2023/04/06 04:45:17;;;;;;;;;;;;;;;16.47;47.26;100439.22;4986698;28;1383;-45
2023/04/06 04:47:43;;;;;;;;;;;;;;;16.22;46.81;100429.97;4998265;28;1230;-46
2023/04/06 04:50:11;;;;;;;;;;;;;;;17.06;46.31;100432.03;4996831;28;1967;-45
2023/04/06 04:52:40;;;;;;;;;;;;;;;16.22;47.12;100429.97;4998897;28;1244;-46
2023/04/06 04:55:25;;;;;;;;;;;;;;;17.51;46.12;100435.53;4997814;28;1119;-45
2023/04/06 04:57:54;;;;;;;;;;;;;;;16.82;47.44;100435.47;4998062;28;1150;-42
2023/04/06 05:00:25;;;;;;;;;;;;;;;16.40;47.03;100440.31;4998368;28;1159;-42
2023/04/06 05:02:55;;;;;;;;;;;;;;;16.21;47.57;100436.53;4997786;28;1166;-47
2023/04/06 05:05:29;;;;;;;;;;;;;;;16.56;47.35;100427.38;4999249;28;1021;-48
2023/04/06 05:07:56;;;;;;;;;;;;;;;16.88;46.74;100439.00;4997369;28;1276;-48
2023/04/06 05:10:38;;;;;;;;;;;;;;;17.08;45.92;100444.41;5018254;28;1917;-46
2023/04/06 05:13:04;;;;;;;;;;;;;;;16.61;47.18;100442.97;4997653;28;1266;-42
2023/04/06 05:15:30;;;;;;;;;;;;;;;16.36;47.90;100447.47;4997976;28;1176;-44
2023/04/06 05:18:03;;;;;;;;;;;;;;;16.16;48.02;100431.06;4981807;28;1189;-46
2023/04/06 05:20:32;;;;;;;;;;;;;;;15.95;48.52;100435.78;5014164;28;1328;-44
2023/04/06 05:22:59;;;;;;;;;;;;;;;15.83;48.67;100439.66;4997844;28;1367;-45
2023/04/06 05:25:24;;;;;;;;;;;;;;;15.70;49.14;100435.53;4998977;28;1008;-43
2023/04/06 05:27:53;;;;;;;;;;;;;;;15.58;49.20;100429.50;4997093;28;1524;-43
2023/04/06 05:30:38;;;;;;;;;;;;;;;15.44;49.45;100431.97;5024611;28;1914;-48
2023/04/06 05:33:04;;;;;;;;;;;;;;;15.32;49.66;100437.75;4997663;28;1255;-48
2023/04/06 05:35:42;;;;;;;;;;;;;;;16.67;47.00;100424.56;4997441;28;1244;-47
2023/04/06 05:38:11;;;;;;;;;;;;;;;16.96;45.76;100426.59;4997307;28;1239;-45
2023/04/06 05:40:41;;;;;;;;;;;;;;;16.12;47.70;100419.84;4997409;28;1303;-43
2023/04/06 05:43:10;;;;;;;;;;;;;;;15.77;48.80;100424.28;4997075;28;1211;-48
2023/04/06 05:45:39;;;;;;;;;;;;;;;15.58;48.99;100421.28;4997128;28;1298;-46
2023/04/06 05:48:06;;;;;;;;;;;;;;;15.79;48.87;100421.28;4997222;28;1158;-46
2023/04/06 05:50:31;;;;;;;;;;;;;;;17.24;44.94;100422.31;4996858;28;1914;-46
2023/04/06 05:52:58;;;;;;;;;;;;;;;16.31;47.18;100420.03;4998228;28;1138;-47
2023/04/06 05:55:29;;;;;;;;;;;;;;;15.86;48.32;100411.66;4996355;28;1263;-47
2023/04/06 05:58:06;;;;;;;;;;;;;;;15.56;49.05;100409.78;5013567;28;1323;-47
2023/04/06 06:00:33;;;;;;;;;;;;;;;15.45;49.07;100416.38;4997075;28;1523;-45
2023/04/06 06:03:04;;;;;;;;;;;;;;;16.77;46.03;100417.09;4996460;28;1139;-46
2023/04/06 06:05:30;;;;;;;;;;;;;;;16.77;45.81;100414.34;4996627;28;1092;-47
2023/04/06 06:08:02;;;;;;;;;;;;;;;16.01;47.75;100410.81;4996222;28;1321;-44
2023/04/06 06:10:28;;;;;;;;;;;;;;;15.74;48.49;100414.69;4996543;28;1902;-46
2023/04/06 06:12:55;;;;;;;;;;;;;;;15.56;48.83;100418.00;4996004;28;1263;-44
2023/04/06 06:15:21;;;;;;;;;;;;;;;15.40;48.99;100408.97;4996840;28;1326;-45
2023/04/06 06:17:47;;;;;;;;;;;;;;;16.84;45.95;100411.25;4997563;28;1068;-46
2023/04/06 06:20:13;;;;;;;;;;;;;;;17.09;45.08;100406.75;4996423;28;1232;-41
2023/04/06 06:22:40;;;;;;;;;;;;;;;16.18;47.12;100399.53;4994546;28;1333;-42
2023/04/06 06:25:09;;;;;;;;;;;;;;;15.82;47.89;100405.13;4976874;28;1422;-46
2023/04/06 06:27:34;;;;;;;;;;;;;;;15.62;48.52;100403.19;4979838;28;1240;-45
2023/04/06 06:30:00;;;;;;;;;;;;;;;15.45;48.86;100399.94;4997140;28;1906;-44
2023/04/06 06:32:29;;;;;;;;;;;;;;;16.67;45.94;100408.91;5015525;28;1152;-46
2023/04/06 06:34:55;;;;;;;;;;;;;;;17.08;44.86;100403.19;4997394;28;1089;-43
2023/04/06 06:37:21;;;;;;;;;;;;;;;16.17;46.97;100408.88;4996999;28;1078;-44
2023/04/06 06:39:47;;;;;;;;;;;;;;;15.81;47.92;100403.47;4995849;28;1277;-47
2023/04/06 06:42:13;;;;;;;;;;;;;;;15.62;48.41;100402.38;4995963;28;1541;-46
2023/04/06 06:44:47;;;;;;;;;;;;;;;15.55;48.45;100411.69;4995524;28;1221;-45
2023/04/06 06:47:12;;;;;;;;;;;;;;;17.10;44.95;100408.41;4995801;28;1633;-44
2023/04/06 06:49:38;;;;;;;;;;;;;;;16.69;45.56;100403.13;4995481;28;1910;-45
2023/04/06 06:52:04;;;;;;;;;;;;;;;16.00;47.25;100400.94;4996566;28;1284;-48
2023/04/06 06:54:29;;;;;;;;;;;;;;;15.77;47.77;100404.25;4997188;28;1152;-47
2023/04/06 06:56:55;;;;;;;;;;;;;;;15.68;48.11;100402.09;4997313;28;983;-47
2023/04/06 06:59:21;;;;;;;;;;;;;;;17.23;44.55;100401.44;4997132;28;1140;-44
2023/04/06 07:01:46;;;;;;;;;;;;;;;16.72;45.60;100400.66;4995875;28;1354;-47
2023/04/06 07:04:12;;;;;;;;;;;;;;;16.12;46.90;100403.38;4993862;28;1345;-46
2023/04/06 07:06:38;;;;;;;;;;;;;;;15.85;47.60;100393.59;4985165;28;1044;-44
2023/04/06 07:09:05;;;;;;;;;;;;;;;15.65;48.21;100393.59;4995091;28;1894;-47
2023/04/06 07:11:31;;;;;;;;;;;;;;;15.83;47.91;100401.25;4995460;28;1231;-42
2023/04/06 07:13:57;;;;;;;;;;;;;;;17.35;44.37;100393.63;4996755;28;1215;-47
2023/04/06 07:16:23;;;;;;;;;;;;;;;16.56;45.79;100394.44;4995675;28;1150;-43
2023/04/06 07:18:48;;;;;;;;;;;;;;;16.05;47.11;100394.66;4996390;28;1072;-44
2023/04/06 07:21:15;;;;;;;;;;;;;;;15.82;47.71;100393.31;4991909;28;1270;-48
2023/04/06 07:23:41;;;;;;;;;;;;;;;15.61;48.11;100398.81;4977192;28;1197;-43
2023/04/06 07:26:06;;;;;;;;;;;;;;;15.86;47.71;100397.16;4979094;28;1262;-46
2023/04/06 07:28:32;;;;;;;;;;;;;;;17.34;44.36;100400.22;4995315;28;1964;-45
2023/04/06 07:31:00;;;;;;;;;;;;;;;16.67;45.45;100397.09;4990351;28;1232;-42
2023/04/06 07:33:29;;;;;;;;;;;;;;;16.02;47.14;100395.19;4988873;28;1321;-44
2023/04/06 07:35:56;;;;;;;;;;;;;;;15.79;47.85;100382.88;4992039;28;1284;-42
2023/04/06 07:38:21;;;;;;;;;;;;;;;15.55;48.28;100394.44;4981502;28;1349;-45
2023/04/06 07:40:47;;;;;;;;;;;;;;;15.74;47.95;100381.00;4990435;28;1424;-42
2023/04/06 07:43:13;;;;;;;;;;;;;;;17.27;44.28;100394.25;4994625;28;1358;-42
2023/04/06 07:45:38;;;;;;;;;;;;;;;16.67;45.51;100389.69;4983374;28;1428;-44
2023/04/06 07:48:05;;;;;;;;;;;;;;;16.02;47.38;100382.31;4987369;28;1093;-45
2023/04/06 07:50:32;;;;;;;;;;;;;;;15.74;48.10;100378.25;4995090;28;1973;-44
2023/04/06 07:52:58;;;;;;;;;;;;;;;15.55;48.46;100383.47;4994912;28;1119;-44
2023/04/06 07:55:23;;;;;;;;;;;;;;;15.41;48.88;100385.97;4994508;28;1294;-41
2023/04/06 07:57:50;;;;;;;;;;;;;;;16.88;45.41;100386.81;4993262;28;1239;-42
2023/04/06 08:00:16;;;;;;;;;;;;;;;16.67;45.80;100381.44;4996137;28;1235;-46
2023/04/06 08:02:41;;;;;;;;;;;;;;;15.96;47.58;100386.16;4995219;28;1326;-44
2023/04/06 08:05:07;;;;;;;;;;;;;;;15.70;48.06;100380.72;4982503;28;2065;-46
2023/04/06 08:07:33;;;;;;;;;;;;;;;15.53;48.63;100380.19;4995939;28;1248;-44
2023/04/06 08:09:58;;;;;;;;;;;;;;;16.70;45.78;100388.28;4987852;28;1907;-45
2023/04/06 08:12:24;;;;;;;;;;;;;;;16.99;44.90;100385.66;4995951;28;1252;-45
2023/04/06 08:14:50;;;;;;;;;;;;;;;16.15;46.81;100385.56;4983009;28;1133;-41
2023/04/06 08:17:15;;;;;;;;;;;;;;;15.80;48.00;100384.56;4996407;28;1140;-44
2023/04/06 08:19:42;;;;;;;;;;;;;;;15.56;48.38;100374.97;4982177;28;1184;-44
2023/04/06 08:22:08;;;;;;;;;;;;;;;16.24;47.07;100381.13;4996075;28;1067;-46
2023/04/06 08:24:33;;;;;;;;;;;;;;;17.43;44.00;100381.19;4995991;28;1177;-45
2023/04/06 08:26:59;;;;;;;;;;;;;;;16.41;46.09;100378.84;4985506;28;1295;-46
2023/04/06 08:29:24;;;;;;;;;;;;;;;15.90;47.42;100382.59;4976845;28;1997;-48
2023/04/06 08:31:50;;;;;;;;;;;;;;;15.67;47.91;100374.94;4980012;28;1212;-46
2023/04/06 08:34:16;;;;;;;;;;;;;;;15.50;48.45;100388.94;4992247;28;1164;-47
2023/04/06 08:36:41;;;;;;;;;;;;;;;15.52;48.54;100384.03;4989067;28;1259;-44
2023/04/06 08:39:07;;;;;;;;;;;;;;;17.10;44.64;100389.16;4999428;28;1126;-44
2023/04/06 08:41:32;;;;;;;;;;;;;;;16.80;45.43;100384.66;4999471;28;1025;-44
2023/04/06 08:43:58;;;;;;;;;;;;;;;16.04;47.26;100380.09;4999388;28;1052;-42
2023/04/06 08:46:29;;;;;;;;;;;;;;;15.72;47.76;100378.53;4990899;28;1495;-43
2023/04/06 08:48:55;;;;;;;;;;;;;;;15.53;48.26;100381.00;4995599;28;1970;-42
2023/04/06 08:51:21;;;;;;;;;;;;;;;15.56;48.48;100379.66;4998003;28;1029;-43
2023/04/06 08:53:46;;;;;;;;;;;;;;;17.17;44.62;100380.59;4979275;28;1354;-42
2023/04/06 08:56:12;;;;;;;;;;;;;;;17.17;44.46;100372.34;5030297;28;1150;-47
2023/04/06 08:58:39;;;;;;;;;;;;;;;16.23;46.68;100376.75;4982343;28;1318;-42
2023/04/06 09:01:08;;;;;;;;;;;;;;;15.86;47.85;100372.47;4979727;28;1290;-46
2023/04/06 09:03:35;;;;;;;;;;;;;;;15.74;47.99;100373.56;4981188;28;1315;-45
2023/04/06 09:06:01;;;;;;;;;;;;;;;17.30;44.26;100381.88;5018144;28;1354;-47
2023/04/06 09:08:26;;;;;;;;;;;;;;;16.68;45.52;100374.84;4984053;28;1260;-46
2023/04/06 09:10:52;;;;;;;;;;;;;;;16.07;47.33;100374.06;4991897;28;1902;-46
2023/04/06 09:13:18;;;;;;;;;;;;;;;15.77;47.87;100368.63;4996917;28;1208;-45
2023/04/06 09:15:43;;;;;;;;;;;;;;;15.59;48.52;100375.53;4998847;28;1180;-43
2023/04/06 09:18:09;;;;;;;;;;;;;;;15.46;48.83;100374.16;4998923;28;1172;-42
2023/04/06 09:20:35;;;;;;;;;;;;;;;16.94;45.31;100385.69;4998557;28;1069;-41
2023/04/06 09:23:00;;;;;;;;;;;;;;;16.83;45.47;100386.84;4998549;28;1040;-42
2023/04/06 09:25:26;;;;;;;;;;;;;;;16.11;47.19;100384.47;4998680;28;1130;-42
2023/04/06 09:28:02;;;;;;;;;;;;;;;15.76;47.93;100377.97;4998605;28;1088;-45
2023/04/06 09:30:28;;;;;;;;;;;;;;;15.67;48.43;100389.50;4985177;28;1968;-47
2023/04/06 09:32:56;;;;;;;;;;;;;;;17.21;44.76;100387.16;4998367;28;1227;-43
2023/04/06 09:35:22;;;;;;;;;;;;;;;16.64;45.76;100387.50;4985998;28;1121;-40
2023/04/06 09:37:55;;;;;;;;;;;;;;;16.03;47.34;100383.97;4985254;28;1224;-43
2023/04/06 09:40:22;;;;;;;;;;;;;;;15.77;48.16;100379.59;4997743;28;1304;-44
2023/04/06 09:42:48;;;;;;;;;;;;;;;15.60;48.27;100386.22;4998540;28;1239;-41
2023/04/06 09:45:14;;;;;;;;;;;;;;;15.46;48.77;100371.41;4998271;28;1188;-46
2023/04/06 09:47:40;;;;;;;;;;;;;;;16.40;46.68;100381.88;4997263;28;1215;-42
2023/04/06 09:50:06;;;;;;;;;;;;;;;17.43;44.15;100382.03;4998282;28;1952;-37
2023/04/06 09:52:32;;;;;;;;;;;;;;;16.34;46.48;100378.34;4996391;28;1229;-44
2023/04/06 09:55:03;;;;;;;;;;;;;;;15.90;47.83;100379.03;4996927;28;1220;-42
2023/04/06 09:57:38;;;;;;;;;;;;;;;15.65;48.41;100364.25;4997408;28;1235;-43
2023/04/06 10:00:11;;;;;;;;;;;;;;;15.50;48.87;100383.47;5009980;28;1250;-42
2023/04/06 10:02:46;;;;;;;;;;;;;;;15.38;49.19;100384.59;4978519;28;1181;-44
2023/04/06 10:05:30;;;;;;;;;;;;;;;17.03;45.15;100380.44;4979317;28;1157;-39
2023/04/06 10:07:56;;;;;;;;;;;;;;;16.94;45.00;100374.72;4980849;28;994;-43
2023/04/06 10:10:22;;;;;;;;;;;;;;;16.14;47.00;100367.44;4977618;28;1915;-42
2023/04/06 10:12:47;;;;;;;;;;;;;;;15.81;48.01;100369.75;4991692;28;1255;-40
2023/04/06 10:15:13;;;;;;;;;;;;;;;15.64;48.40;100370.03;4987778;28;1144;-44
2023/04/06 10:17:39;;;;;;;;;;;;;;;15.51;48.63;100379.63;4996227;28;1360;-45
2023/04/06 10:20:23;;;;;;;;;;;;;;;17.06;45.08;100375.16;4997450;28;1092;-43
2023/04/06 10:22:53;;;;;;;;;;;;;;;16.84;45.40;100380.25;4997983;28;1144;-42
2023/04/06 10:25:28;;;;;;;;;;;;;;;16.08;47.07;100372.94;4985246;28;1196;-42
2023/04/06 10:28:20;;;;;;;;;;;;;;;15.78;48.05;100371.13;4984218;28;1290;-44
2023/04/06 10:30:46;;;;;;;;;;;;;;;15.57;48.38;100379.38;4997524;28;1915;-44
2023/04/06 10:33:15;;;;;;;;;;;;;;;15.84;47.96;100375.50;4997253;28;1246;-41
2023/04/06 10:35:41;;;;;;;;;;;;;;;17.35;44.43;100377.16;4997546;28;1156;-46
2023/04/06 10:38:07;;;;;;;;;;;;;;;16.47;46.40;100382.38;4997444;28;1096;-45
2023/04/06 10:40:35;;;;;;;;;;;;;;;15.96;47.61;100377.09;4997492;28;1056;-41
2023/04/06 10:43:07;;;;;;;;;;;;;;;15.72;48.36;100367.56;4997729;28;1075;-41
2023/04/06 10:45:33;;;;;;;;;;;;;;;16.81;45.77;100369.84;4997084;28;1150;-44
2023/04/06 10:47:58;;;;;;;;;;;;;;;17.24;44.55;100375.59;4996467;28;1176;-38
2023/04/06 10:50:24;;;;;;;;;;;;;;;16.28;46.97;100368.47;4996795;28;2001;-46
2023/04/06 10:53:00;;;;;;;;;;;;;;;15.92;47.81;100371.34;4982958;28;1339;-44
2023/04/06 10:55:26;;;;;;;;;;;;;;;15.73;48.07;100369.19;4987928;28;1228;-43
2023/04/06 10:57:52;;;;;;;;;;;;;;;15.53;48.65;100359.09;5024139;28;1099;-47
2023/04/06 11:00:19;;;;;;;;;;;;;;;15.38;49.25;100370.88;4977077;28;1256;-41
2023/04/06 11:02:44;;;;;;;;;;;;;;;16.76;45.92;100366.03;4994277;28;1217;-39
2023/04/06 11:05:11;;;;;;;;;;;;;;;17.16;44.67;100365.22;4983428;28;1188;-41
2023/04/06 11:07:37;;;;;;;;;;;;;;;16.20;47.20;100358.94;4997214;28;1156;-42
2023/04/06 11:10:03;;;;;;;;;;;;;;;15.85;47.82;100360.69;4996906;28;1906;-41
2023/04/06 11:12:30;;;;;;;;;;;;;;;15.61;48.38;100359.63;4996974;28;1131;-47
2023/04/06 11:15:05;;;;;;;;;;;;;;;15.52;48.90;100362.13;4996768;28;1133;-43
2023/04/06 11:17:31;;;;;;;;;;;;;;;17.04;45.17;100360.91;4996853;28;1052;-39
2023/04/06 11:19:57;;;;;;;;;;;;;;;16.68;45.86;100360.31;4995100;28;1141;-43
2023/04/06 11:22:23;;;;;;;;;;;;;;;16.04;47.58;100362.81;4993568;28;1196;-44
2023/04/06 11:24:49;;;;;;;;;;;;;;;15.76;48.06;100361.50;4987724;28;1216;-40
2023/04/06 11:27:16;;;;;;;;;;;;;;;15.56;48.84;100354.97;4976943;28;1212;-44
2023/04/06 11:29:41;;;;;;;;;;;;;;;15.73;48.32;100362.88;4975347;28;1903;-43
2023/04/06 11:32:08;;;;;;;;;;;;;;;17.23;44.71;100360.22;4976697;28;1248;-44
2023/04/06 11:34:38;;;;;;;;;;;;;;;16.72;45.69;100356.72;4977952;28;1255;-43
2023/04/06 11:37:07;;;;;;;;;;;;;;;16.06;47.29;100345.00;4977040;28;1216;-43
2023/04/06 11:39:37;;;;;;;;;;;;;;;15.78;48.25;100345.59;4976507;28;1196;-40
2023/04/06 11:42:03;;;;;;;;;;;;;;;15.59;48.63;100337.16;4977206;28;1232;-42
2023/04/06 11:44:31;;;;;;;;;;;;;;;16.92;45.54;100346.72;4994699;28;1194;-40
2023/04/06 11:46:57;;;;;;;;;;;;;;;16.99;45.19;100338.97;5027584;28;1192;-40
2023/04/06 11:49:26;;;;;;;;;;;;;;;16.17;47.29;100343.03;4996478;28;1914;-43
2023/04/06 11:51:51;;;;;;;;;;;;;;;15.81;48.31;100336.84;4996772;28;1204;-42
2023/04/06 11:54:17;;;;;;;;;;;;;;;15.67;48.42;100336.56;4996270;28;1134;-41
2023/04/06 11:56:45;;;;;;;;;;;;;;;15.53;49.01;100331.69;4996405;28;1028;-40
2023/04/06 11:59:11;;;;;;;;;;;;;;;16.84;45.96;100337.13;5022244;28;1120;-44
2023/04/06 12:01:44;;;;;;;;;;;;;;;16.79;45.81;100317.13;4989578;28;1148;-42
2023/04/06 12:04:10;;;;;;;;;;;;;;;16.02;47.64;100313.75;4983397;28;1107;-43
2023/04/06 12:06:35;;;;;;;;;;;;;;;15.76;48.34;100325.88;4986797;28;1223;-41
2023/04/06 12:09:01;;;;;;;;;;;;;;;15.58;48.79;100322.63;4983739;28;1910;-45
2023/04/06 12:11:27;;;;;;;;;;;;;;;15.41;49.05;100328.41;4987017;28;1045;-38
2023/04/06 12:13:52;;;;;;;;;;;;;;;16.91;45.58;100325.84;4999851;28;1231;-46
2023/04/06 12:16:19;;;;;;;;;;;;;;;16.88;45.47;100326.41;5000044;28;1160;-45
2023/04/06 12:18:44;;;;;;;;;;;;;;;16.13;47.56;100321.91;4999850;28;1041;-45
2023/04/06 12:21:10;;;;;;;;;;;;;;;15.81;48.05;100331.34;4999791;28;1140;-41
2023/04/06 12:23:36;;;;;;;;;;;;;;;15.60;48.85;100330.56;4999304;28;978;-42
2023/04/06 12:26:02;;;;;;;;;;;;;;;15.49;49.20;100324.31;5000051;28;1107;-46
2023/04/06 12:28:28;;;;;;;;;;;;;;;16.50;46.70;100337.09;4999649;28;1108;-45
2023/04/06 12:30:54;;;;;;;;;;;;;;;17.44;44.36;100334.16;5000544;28;1980;-46
2023/04/06 12:33:20;;;;;;;;;;;;;;;16.35;46.72;100324.28;4999553;28;1097;-48
2023/04/06 12:35:46;;;;;;;;;;;;;;;15.90;48.05;100327.75;5000386;28;1168;-44
2023/04/06 12:38:12;;;;;;;;;;;;;;;15.69;48.40;100329.72;4999590;28;1131;-41
2023/04/06 12:40:38;;;;;;;;;;;;;;;15.57;48.87;100331.94;4999713;28;1135;-43
2023/04/06 12:43:04;;;;;;;;;;;;;;;15.42;49.38;100330.06;4999813;28;1118;-42
2023/04/06 12:45:30;;;;;;;;;;;;;;;16.75;46.03;100333.38;4998824;28;1318;-44
2023/04/06 12:47:56;;;;;;;;;;;;;;;17.22;44.76;100320.09;4999572;28;1115;-43
2023/04/06 12:50:21;;;;;;;;;;;;;;;16.23;47.27;100332.84;4999338;28;1906;-45